Time;durP1;ratioP1;P1;durP2;ratioP2;P2;SDS_P1;SDS_P2;PMS_P1;PMS_P2;Temp;Humidity;BMP_temperature;BMP_pressure;BME280_temperature;BME280_humidity;BME280_pressure;Samples;Min_cycle;Max_cycle;Signal;HPM_P1;HPM_P2
2021/05/31 00:04:31;;;;;;;18.20;9.77;;;;;;;;;;10314438;28;20064;-67
2021/05/31 00:09:28;;;;;;;14.77;10.10;;;;;;;;;;10319822;28;20072;-67
2021/05/31 00:14:25;;;;;;;19.05;10.48;;;;;;;;;;10302201;28;20094;-65
2021/05/31 00:19:22;;;;;;;19.48;12.25;;;;;;;;;;10308119;28;20070;-66
2021/05/31 00:24:18;;;;;;;17.67;11.23;;;;;;;;;;10301294;28;20137;-67
2021/05/31 00:29:16;;;;;;;19.05;11.70;;;;;;;;;;10299966;28;20786;-67
2021/05/31 00:34:13;;;;;;;19.88;12.13;;;;;;;;;;10308980;28;20073;-67
2021/05/31 00:39:10;;;;;;;16.65;10.68;;;;;;;;;;10309849;28;20072;-67
2021/05/31 00:44:06;;;;;;;19.05;11.93;;;;;;;;;;10303603;28;20079;-66
2021/05/31 00:49:02;;;;;;;20.90;12.23;;;;;;;;;;10296029;28;20106;-66
2021/05/31 00:54:00;;;;;;;21.85;11.70;;;;;;;;;;10310142;28;20131;-68
2021/05/31 00:58:56;;;;;;;18.85;12.48;;;;;;;;;;10296119;28;20040;-68
2021/05/31 01:08:58;;;;;;;16.80;11.38;;;;;;;;;;10422246;22;20502;-70
2021/05/31 01:13:58;;;;;;;17.27;12.10;;;;;;;;;;10178123;28;20551;-68
2021/05/31 01:18:55;;;;;;;16.92;12.27;;;;;;;;;;10153646;28;20561;-66
2021/05/31 01:24:21;;;;;;;17.98;11.07;;;;;;;;;;10143150;28;20077;-68
2021/05/31 01:29:18;;;;;;;19.85;11.68;;;;;;;;;;10130534;28;20867;-67
2021/05/31 01:34:16;;;;;;;24.05;12.00;;;;;;;;;;10165484;28;20038;-68
2021/05/31 01:39:14;;;;;;;18.17;11.20;;;;;;;;;;10158137;28;20042;-68
2021/05/31 01:44:13;;;;;;;16.05;10.90;;;;;;;;;;10157762;28;20129;-68
2021/05/31 01:49:10;;;;;;;18.10;11.75;;;;;;;;;;10144651;28;20097;-66
2021/05/31 01:54:07;;;;;;;16.75;11.20;;;;;;;;;;10153480;28;20076;-66
2021/05/31 01:59:04;;;;;;;18.70;11.45;;;;;;;;;;10144895;28;20038;-68
2021/05/31 02:04:00;;;;;;;18.88;11.88;;;;;;;;;;10167823;28;20144;-69
2021/05/31 02:08:57;;;;;;;17.73;11.93;;;;;;;;;;10143564;28;20058;-69
2021/05/31 02:13:55;;;;;;;15.82;11.15;;;;;;;;;;10146783;28;20146;-69
2021/05/31 02:18:52;;;;;;;18.65;11.27;;;;;;;;;;10153824;28;20126;-71
2021/05/31 02:23:50;;;;;;;21.50;11.95;;;;;;;;;;10156050;28;20125;-71
2021/05/31 02:28:47;;;;;;;19.75;12.13;;;;;;;;;;10145793;28;20053;-72
2021/05/31 02:33:44;;;;;;;17.58;10.80;;;;;;;;;;10154842;28;20078;-71
2021/05/31 02:38:44;;;;;;;16.33;11.20;;;;;;;;;;10137716;28;20046;-71
2021/05/31 02:43:40;;;;;;;16.83;11.75;;;;;;;;;;10145707;28;20669;-71
2021/05/31 02:48:36;;;;;;;20.52;12.20;;;;;;;;;;10141411;28;20047;-69
2021/05/31 02:53:33;;;;;;;20.05;12.70;;;;;;;;;;10149728;28;20053;-70
2021/05/31 02:58:29;;;;;;;17.15;12.10;;;;;;;;;;10156267;28;20082;-70
2021/05/31 03:03:26;;;;;;;19.20;13.45;;;;;;;;;;10163186;28;20034;-70
2021/05/31 03:08:22;;;;;;;18.33;11.60;;;;;;;;;;10154025;28;20477;-70
2021/05/31 03:13:19;;;;;;;18.05;11.70;;;;;;;;;;10159178;28;20117;-70
2021/05/31 03:18:15;;;;;;;16.13;11.88;;;;;;;;;;10162361;28;20038;-70
2021/05/31 03:23:12;;;;;;;23.50;12.75;;;;;;;;;;10154977;28;20126;-70
2021/05/31 03:28:09;;;;;;;20.50;12.73;;;;;;;;;;10158013;28;20201;-70
2021/05/31 03:33:05;;;;;;;20.60;12.85;;;;;;;;;;10156331;28;20475;-70
2021/05/31 03:38:01;;;;;;;18.40;12.20;;;;;;;;;;10141690;28;20820;-71
2021/05/31 03:42:58;;;;;;;18.17;11.73;;;;;;;;;;10151939;28;20043;-71
2021/05/31 03:47:54;;;;;;;20.63;12.15;;;;;;;;;;10157058;28;20523;-70
2021/05/31 03:52:51;;;;;;;20.85;12.57;;;;;;;;;;10151437;28;20500;-70
2021/05/31 03:57:47;;;;;;;22.70;13.55;;;;;;;;;;10140729;28;20051;-68
2021/05/31 04:02:45;;;;;;;21.30;12.40;;;;;;;;;;10146116;28;20499;-69
2021/05/31 04:12:57;;;;;;;19.17;12.15;;;;;;;;;;10142683;28;20462;-68
2021/05/31 04:17:53;;;;;;;22.35;11.68;;;;;;;;;;10147072;28;20737;-71
2021/05/31 04:22:50;;;;;;;18.38;12.23;;;;;;;;;;10160319;28;20515;-71
2021/05/31 04:27:46;;;;;;;18.00;12.45;;;;;;;;;;10135950;28;20476;-69
2021/05/31 04:32:43;;;;;;;19.95;11.90;;;;;;;;;;10127597;28;20565;-67
2021/05/31 04:37:40;;;;;;;21.17;14.00;;;;;;;;;;10142474;28;20038;-70
2021/05/31 04:42:37;;;;;;;20.55;12.48;;;;;;;;;;10134846;28;20049;-71
2021/05/31 04:47:34;;;;;;;19.55;12.90;;;;;;;;;;10133265;28;20053;-66
2021/05/31 04:52:30;;;;;;;17.90;11.95;;;;;;;;;;10138781;28;20046;-66
2021/05/31 04:57:26;;;;;;;18.63;12.05;;;;;;;;;;10120493;28;20066;-65
2021/05/31 05:02:27;;;;;;;19.00;11.48;;;;;;;;;;10130910;28;20533;-66
2021/05/31 05:07:24;;;;;;;17.92;11.60;;;;;;;;;;10130780;28;20157;-66
2021/05/31 05:12:21;;;;;;;15.88;9.80;;;;;;;;;;10138023;28;20133;-65
2021/05/31 05:17:17;;;;;;;16.08;9.90;;;;;;;;;;10128804;28;20166;-65
2021/05/31 05:22:14;;;;;;;12.05;7.63;;;;;;;;;;10135872;28;20081;-65
2021/05/31 05:27:10;;;;;;;10.00;5.70;;;;;;;;;;10134391;28;20712;-66
2021/05/31 05:32:07;;;;;;;9.35;5.57;;;;;;;;;;10127210;28;20046;-65
2021/05/31 05:37:08;;;;;;;11.32;5.07;;;;;;;;;;10133086;28;20133;-69
2021/05/31 05:52:13;;;;;;;9.07;4.15;;;;;;;;;;10153086;28;20053;-68
2021/05/31 05:57:09;;;;;;;10.63;4.13;;;;;;;;;;10128212;28;20489;-68
2021/05/31 06:02:06;;;;;;;7.35;4.20;;;;;;;;;;10130663;28;20089;-69
2021/05/31 06:07:02;;;;;;;6.70;3.58;;;;;;;;;;10125598;28;20057;-69
2021/05/31 06:11:58;;;;;;;6.10;3.05;;;;;;;;;;10129059;28;20088;-69
2021/05/31 06:16:55;;;;;;;9.77;3.67;;;;;;;;;;10121075;28;20051;-69
2021/05/31 06:21:51;;;;;;;10.98;3.38;;;;;;;;;;10136613;28;20058;-68
2021/05/31 06:26:48;;;;;;;6.88;2.40;;;;;;;;;;10126935;28;20058;-69
2021/05/31 06:31:44;;;;;;;5.63;2.28;;;;;;;;;;10153852;28;20050;-69
2021/05/31 06:36:41;;;;;;;4.82;2.40;;;;;;;;;;10145640;28;20050;-69
2021/05/31 06:41:38;;;;;;;5.20;2.10;;;;;;;;;;10137105;28;20074;-69
2021/05/31 06:46:34;;;;;;;6.22;1.92;;;;;;;;;;10148364;28;20080;-69
2021/05/31 06:51:32;;;;;;;5.40;1.88;;;;;;;;;;10137549;28;20054;-69
2021/05/31 06:56:28;;;;;;;7.00;2.03;;;;;;;;;;10149375;28;20141;-70
2021/05/31 07:01:24;;;;;;;4.88;1.75;;;;;;;;;;10129072;28;20046;-70
2021/05/31 07:06:21;;;;;;;9.32;2.25;;;;;;;;;;10131103;28;20150;-68
2021/05/31 07:11:21;;;;;;;4.25;1.95;;;;;;;;;;10140707;28;20061;-69
2021/05/31 07:16:18;;;;;;;3.75;1.80;;;;;;;;;;10133080;28;20074;-69
2021/05/31 07:21:15;;;;;;;3.85;1.73;;;;;;;;;;10133860;28;20620;-69
2021/05/31 07:26:12;;;;;;;3.88;1.50;;;;;;;;;;10126698;28;20038;-66
2021/05/31 07:31:09;;;;;;;6.15;1.70;;;;;;;;;;10135184;28;20504;-69
2021/05/31 07:36:05;;;;;;;4.28;1.88;;;;;;;;;;10152753;28;20389;-68
2021/05/31 07:41:01;;;;;;;4.07;1.40;;;;;;;;;;10141653;28;20093;-69
2021/05/31 07:45:58;;;;;;;5.50;1.70;;;;;;;;;;10147824;28;20201;-69
2021/05/31 07:51:14;;;;;;;4.32;1.73;;;;;;;;;;10140975;28;20122;-69
2021/05/31 07:56:12;;;;;;;5.13;1.33;;;;;;;;;;10136379;28;20050;-70
2021/05/31 08:01:08;;;;;;;3.95;1.42;;;;;;;;;;10150066;28;20501;-68
2021/05/31 08:06:05;;;;;;;5.72;1.67;;;;;;;;;;10130757;28;20068;-68
2021/05/31 08:11:01;;;;;;;7.50;1.60;;;;;;;;;;10140898;28;20504;-68
2021/05/31 08:15:57;;;;;;;5.40;1.58;;;;;;;;;;10136167;28;20137;-67
2021/05/31 08:20:58;;;;;;;6.80;1.65;;;;;;;;;;10135379;28;20069;-68
2021/05/31 08:25:54;;;;;;;8.52;1.95;;;;;;;;;;10136593;28;20410;-68
2021/05/31 08:30:51;;;;;;;4.75;1.58;;;;;;;;;;10131057;28;20737;-68
2021/05/31 08:35:47;;;;;;;3.75;1.25;;;;;;;;;;10133540;28;20050;-69
2021/05/31 08:40:44;;;;;;;4.32;1.33;;;;;;;;;;10124248;28;20051;-67
2021/05/31 08:45:42;;;;;;;5.20;1.27;;;;;;;;;;10147370;28;20139;-69
2021/05/31 08:50:38;;;;;;;2.67;1.10;;;;;;;;;;10129528;28;20537;-69
2021/05/31 08:55:35;;;;;;;3.83;1.40;;;;;;;;;;10135567;28;20403;-67
2021/05/31 09:00:34;;;;;;;5.18;1.23;;;;;;;;;;10129594;28;20073;-68
2021/05/31 09:05:38;;;;;;;5.85;1.65;;;;;;;;;;10136524;28;20046;-70
2021/05/31 09:10:41;;;;;;;4.55;1.58;;;;;;;;;;10122413;28;20043;-69
2021/05/31 09:15:39;;;;;;;5.20;2.00;;;;;;;;;;10143647;28;20501;-69
2021/05/31 09:20:35;;;;;;;5.35;1.63;;;;;;;;;;10129694;28;20047;-69
2021/05/31 09:25:33;;;;;;;4.72;2.00;;;;;;;;;;10135826;28;20654;-69
2021/05/31 09:30:34;;;;;;;5.25;1.70;;;;;;;;;;10136900;28;20105;-70
2021/05/31 09:35:30;;;;;;;6.80;2.42;;;;;;;;;;10135595;28;20158;-70
2021/05/31 09:40:26;;;;;;;5.97;1.90;;;;;;;;;;10134898;28;20042;-68
2021/05/31 09:45:23;;;;;;;4.43;1.90;;;;;;;;;;10133321;28;20125;-68
2021/05/31 09:50:22;;;;;;;5.20;2.15;;;;;;;;;;10132568;28;20038;-69
2021/05/31 09:55:18;;;;;;;3.15;1.55;;;;;;;;;;10129507;28;20077;-69
2021/05/31 10:00:19;;;;;;;4.20;1.80;;;;;;;;;;10136619;28;20535;-70
2021/05/31 10:10:25;;;;;;;5.25;1.95;;;;;;;;;;10131360;28;20501;-68
2021/05/31 10:15:24;;;;;;;6.47;2.35;;;;;;;;;;10126482;28;20058;-66
2021/05/31 10:20:20;;;;;;;5.45;2.20;;;;;;;;;;10133201;28;20101;-71
2021/05/31 10:25:17;;;;;;;3.53;1.52;;;;;;;;;;10132844;28;20632;-71
2021/05/31 10:30:15;;;;;;;5.88;2.30;;;;;;;;;;10122503;28;20109;-72
2021/05/31 10:35:15;;;;;;;3.95;1.83;;;;;;;;;;10119432;28;20133;-73
2021/05/31 10:40:12;;;;;;;4.07;1.80;;;;;;;;;;10131770;28;20686;-71
2021/05/31 10:45:15;;;;;;;6.28;1.77;;;;;;;;;;10129404;28;20055;-69
2021/05/31 10:50:11;;;;;;;;;;;;;;;;;;10125737;28;20129;-69
2021/05/31 10:55:08;;;;;;;3.47;1.67;;;;;;;;;;10125135;28;19961;-69
2021/05/31 11:00:05;;;;;;;5.82;1.60;;;;;;;;;;10120604;28;20511;-70
2021/05/31 11:05:06;;;;;;;4.15;1.70;;;;;;;;;;10119978;28;20165;-69
2021/05/31 11:10:18;;;;;;;5.07;2.10;;;;;;;;;;10133434;28;20618;-68
2021/05/31 11:15:14;;;;;;;4.50;2.10;;;;;;;;;;10127809;28;20688;-69
2021/05/31 11:20:11;;;;;;;5.20;1.65;;;;;;;;;;10140990;28;20488;-68
2021/05/31 11:25:09;;;;;;;6.57;1.95;;;;;;;;;;10138096;28;20132;-69
2021/05/31 11:30:07;;;;;;;4.18;1.95;;;;;;;;;;10131064;28;20042;-69
2021/05/31 11:35:06;;;;;;;4.72;2.20;;;;;;;;;;10139387;28;20457;-68
2021/05/31 11:40:27;;;;;;;5.15;2.00;;;;;;;;;;10127215;28;20053;-69
2021/05/31 11:45:24;;;;;;;5.47;2.03;;;;;;;;;;10134389;28;20097;-69
2021/05/31 11:50:21;;;;;;;3.85;1.70;;;;;;;;;;10124976;28;20146;-70
2021/05/31 11:55:22;;;;;;;5.00;2.10;;;;;;;;;;10122602;28;20058;-69
2021/05/31 12:00:36;;;;;;;5.43;1.98;;;;;;;;;;10124084;28;20109;-69
2021/05/31 12:05:34;;;;;;;5.22;1.83;;;;;;;;;;10141307;28;20133;-69
2021/05/31 12:10:31;;;;;;;4.63;1.95;;;;;;;;;;10135515;28;20089;-69
2021/05/31 12:15:28;;;;;;;6.63;2.25;;;;;;;;;;10137376;28;20080;-68
2021/05/31 12:20:27;;;;;;;4.60;2.10;;;;;;;;;;10141858;28;20124;-69
2021/05/31 12:25:24;;;;;;;4.60;1.73;;;;;;;;;;10144182;28;20092;-69
2021/05/31 12:30:22;;;;;;;6.32;2.17;;;;;;;;;;10127898;28;20046;-68
2021/05/31 12:35:18;;;;;;;5.53;1.88;;;;;;;;;;10147345;28;20051;-70
2021/05/31 12:40:14;;;;;;;4.93;2.35;;;;;;;;;;10132341;28;20058;-70
2021/05/31 12:45:12;;;;;;;4.65;2.00;;;;;;;;;;10140387;28;20532;-68
2021/05/31 12:50:09;;;;;;;6.47;2.47;;;;;;;;;;10137583;28;20548;-69
2021/05/31 12:55:09;;;;;;;3.30;1.80;;;;;;;;;;10135707;28;20132;-70
2021/05/31 13:00:07;;;;;;;3.80;1.80;;;;;;;;;;10120463;28;20094;-68
2021/05/31 13:05:05;;;;;;;4.25;2.13;;;;;;;;;;10123750;28;20460;-69
2021/05/31 13:10:06;;;;;;;4.15;2.00;;;;;;;;;;10152184;28;20042;-69
2021/05/31 13:15:03;;;;;;;3.47;1.92;;;;;;;;;;10153647;28;20080;-69
2021/05/31 13:20:07;;;;;;;5.78;2.10;;;;;;;;;;10136887;28;20475;-69
2021/05/31 13:25:04;;;;;;;5.07;1.80;;;;;;;;;;10139717;28;20076;-70
2021/05/31 13:30:12;;;;;;;4.55;1.85;;;;;;;;;;10138508;28;20050;-69
2021/05/31 13:35:09;;;;;;;6.43;2.38;;;;;;;;;;10124467;28;20074;-68
2021/05/31 13:40:06;;;;;;;5.93;2.22;;;;;;;;;;10124348;28;20420;-69
2021/05/31 13:45:06;;;;;;;4.50;1.88;;;;;;;;;;10142898;28;20145;-68
2021/05/31 13:50:03;;;;;;;5.40;2.75;;;;;;;;;;10135409;28;20112;-68
2021/05/31 13:55:02;;;;;;;5.50;2.10;;;;;;;;;;10128500;28;20087;-69
2021/05/31 13:59:58;;;;;;;4.05;2.00;;;;;;;;;;10141772;28;20564;-69
2021/05/31 14:04:54;;;;;;;5.90;2.30;;;;;;;;;;10160816;28;20050;-69
2021/05/31 14:09:51;;;;;;;5.90;2.85;;;;;;;;;;10157736;28;20166;-70
2021/05/31 14:14:47;;;;;;;3.97;2.00;;;;;;;;;;10168654;28;20086;-70
2021/05/31 14:19:43;;;;;;;5.00;2.33;;;;;;;;;;10157243;28;20182;-69
2021/05/31 14:24:40;;;;;;;4.75;2.38;;;;;;;;;;10142946;28;20189;-68
2021/05/31 14:29:37;;;;;;;8.68;2.58;;;;;;;;;;10136308;28;20069;-68
2021/05/31 14:34:37;;;;;;;6.78;2.90;;;;;;;;;;10129886;28;20407;-68
2021/05/31 14:39:34;;;;;;;5.00;2.00;;;;;;;;;;10128977;28;20070;-67
2021/05/31 14:44:30;;;;;;;4.05;2.25;;;;;;;;;;10134168;28;20054;-67
2021/05/31 14:49:27;;;;;;;4.50;2.42;;;;;;;;;;10129199;28;20035;-67
2021/05/31 14:54:23;;;;;;;6.20;2.70;;;;;;;;;;10141833;28;20046;-68
2021/05/31 14:59:20;;;;;;;8.93;2.28;;;;;;;;;;10139498;28;20728;-68
2021/05/31 15:04:16;;;;;;;8.27;3.40;;;;;;;;;;10133344;28;20133;-69
2021/05/31 15:09:13;;;;;;;5.82;3.05;;;;;;;;;;10134024;28;20515;-67
2021/05/31 15:14:09;;;;;;;8.98;3.03;;;;;;;;;;10131264;28;20074;-68
2021/05/31 15:19:10;;;;;;;6.70;2.45;;;;;;;;;;10132897;28;20085;-67
2021/05/31 15:24:07;;;;;;;5.25;2.70;;;;;;;;;;10138025;28;20602;-69
2021/05/31 15:29:03;;;;;;;5.90;2.45;;;;;;;;;;10130241;28;20085;-69
2021/05/31 15:33:59;;;;;;;3.60;1.88;;;;;;;;;;10127217;28;20136;-69
2021/05/31 15:38:56;;;;;;;6.18;2.45;;;;;;;;;;10133005;28;20131;-68
2021/05/31 15:43:52;;;;;;;4.72;2.38;;;;;;;;;;10139276;28;20161;-70
2021/05/31 15:48:48;;;;;;;4.38;2.55;;;;;;;;;;10137392;28;20050;-70
2021/05/31 15:53:45;;;;;;;5.90;2.15;;;;;;;;;;10143865;28;20047;-69
2021/05/31 15:58:42;;;;;;;4.72;2.42;;;;;;;;;;10146966;28;20065;-68
2021/05/31 16:03:39;;;;;;;4.35;1.73;;;;;;;;;;10141393;28;20046;-70
2021/05/31 16:08:35;;;;;;;5.22;2.55;;;;;;;;;;10142542;28;20088;-68
2021/05/31 16:13:32;;;;;;;4.80;2.30;;;;;;;;;;10141612;28;20046;-67
2021/05/31 16:18:30;;;;;;;4.85;2.03;;;;;;;;;;10139067;28;20065;-68
2021/05/31 16:24:04;;;;;;;3.63;2.08;;;;;;;;;;10138131;28;20049;-68
2021/05/31 16:28:49;;;;;;;5.20;2.60;;;;;;;;;;10122033;28;20077;-68
2021/05/31 16:33:46;;;;;;;5.72;2.28;;;;;;;;;;10132589;28;20518;-69
2021/05/31 16:38:42;;;;;;;4.43;1.70;;;;;;;;;;10145754;28;20074;-68
2021/05/31 16:43:39;;;;;;;4.53;1.98;;;;;;;;;;10139143;28;20103;-68
2021/05/31 16:48:35;;;;;;;6.70;2.50;;;;;;;;;;10132576;28;20062;-68
2021/05/31 16:53:31;;;;;;;3.92;1.95;;;;;;;;;;10140144;28;20091;-68
2021/05/31 16:58:28;;;;;;;5.00;2.45;;;;;;;;;;10126980;28;20607;-68
2021/05/31 17:03:24;;;;;;;4.40;1.95;;;;;;;;;;10124039;28;20050;-68
2021/05/31 17:08:21;;;;;;;5.45;1.80;;;;;;;;;;10133459;28;20046;-67
2021/05/31 17:23:47;;;;;;;6.70;2.35;;;;;;;;;;10132659;28;20113;-68
2021/05/31 17:28:44;;;;;;;5.72;2.10;;;;;;;;;;10138649;28;20580;-68
2021/05/31 17:33:40;;;;;;;4.43;2.00;;;;;;;;;;10134254;28;20058;-69
2021/05/31 17:38:37;;;;;;;3.10;1.75;;;;;;;;;;10136800;28;20141;-69
2021/05/31 17:43:33;;;;;;;4.00;2.33;;;;;;;;;;10147641;28;20054;-68
2021/05/31 17:48:29;;;;;;;3.75;1.95;;;;;;;;;;10135601;28;20412;-69
2021/05/31 17:53:26;;;;;;;4.60;1.98;;;;;;;;;;10146761;28;20503;-69
2021/05/31 17:58:22;;;;;;;5.20;2.20;;;;;;;;;;10140110;28;20074;-68
2021/05/31 18:03:19;;;;;;;5.03;2.67;;;;;;;;;;10151108;28;20117;-69
2021/05/31 18:08:16;;;;;;;4.47;2.08;;;;;;;;;;10143958;28;20046;-65
2021/05/31 18:13:13;;;;;;;4.80;2.17;;;;;;;;;;10140202;28;20974;-67
2021/05/31 18:18:11;;;;;;;4.45;2.60;;;;;;;;;;10138161;28;20145;-68
2021/05/31 18:23:12;;;;;;;5.63;2.63;;;;;;;;;;10128637;28;20185;-67
2021/05/31 18:28:09;;;;;;;4.73;2.03;;;;;;;;;;10132715;28;20043;-68
2021/05/31 18:33:07;;;;;;;3.90;2.20;;;;;;;;;;10117793;28;20575;-68
2021/05/31 18:38:04;;;;;;;3.90;2.00;;;;;;;;;;10127110;28;20070;-71
2021/05/31 18:43:01;;;;;;;6.25;2.50;;;;;;;;;;10145965;28;20070;-68
2021/05/31 18:47:57;;;;;;;4.78;1.73;;;;;;;;;;10140353;28;20060;-71
2021/05/31 18:52:54;;;;;;;4.18;2.40;;;;;;;;;;10125747;28;20453;-70
2021/05/31 18:57:50;;;;;;;4.10;2.10;;;;;;;;;;10135769;28;20081;-72
2021/05/31 19:02:47;;;;;;;5.57;2.40;;;;;;;;;;10148605;28;20133;-71
2021/05/31 19:07:43;;;;;;;5.32;2.42;;;;;;;;;;10138655;28;20081;-69
2021/05/31 19:12:42;;;;;;;5.25;2.42;;;;;;;;;;10131362;28;20094;-70
2021/05/31 19:17:38;;;;;;;6.35;2.50;;;;;;;;;;10128305;28;20126;-71
2021/05/31 19:22:35;;;;;;;5.35;2.70;;;;;;;;;;10139461;28;20046;-71
2021/05/31 19:27:32;;;;;;;6.53;3.28;;;;;;;;;;10141789;28;20195;-72
2021/05/31 19:32:28;;;;;;;4.50;2.47;;;;;;;;;;10130295;28;20113;-69
2021/05/31 19:37:25;;;;;;;5.15;2.90;;;;;;;;;;10143053;28;20619;-70
2021/05/31 19:42:21;;;;;;;6.47;3.00;;;;;;;;;;10135301;28;20054;-69
2021/05/31 19:47:17;;;;;;;8.90;3.47;;;;;;;;;;10127650;28;20054;-68
2021/05/31 19:52:14;;;;;;;6.43;3.20;;;;;;;;;;10158978;28;20080;-69
2021/05/31 19:57:31;;;;;;;6.45;3.45;;;;;;;;;;10151688;28;20038;-70
2021/05/31 20:02:30;;;;;;;6.72;3.70;;;;;;;;;;10127806;28;20496;-70
2021/05/31 20:07:32;;;;;;;6.75;4.00;;;;;;;;;;10127610;28;20121;-68
2021/05/31 20:12:29;;;;;;;7.27;3.70;;;;;;;;;;10150222;28;20096;-67
2021/05/31 20:17:26;;;;;;;7.97;4.20;;;;;;;;;;10144284;28;20043;-69
2021/05/31 20:22:22;;;;;;;8.23;3.85;;;;;;;;;;10132319;28;20145;-70
2021/05/31 20:27:19;;;;;;;7.85;3.90;;;;;;;;;;10134832;28;20078;-70
2021/05/31 20:32:16;;;;;;;8.38;4.13;;;;;;;;;;10127114;28;20043;-69
2021/05/31 20:37:12;;;;;;;7.95;3.97;;;;;;;;;;10126924;28;20088;-70
2021/05/31 20:42:09;;;;;;;7.80;3.65;;;;;;;;;;10129943;28;20485;-70
2021/05/31 20:47:09;;;;;;;10.05;4.70;;;;;;;;;;10148794;28;20038;-69
2021/05/31 20:52:06;;;;;;;8.65;5.18;;;;;;;;;;10157498;28;20046;-69
2021/05/31 20:57:03;;;;;;;7.00;4.65;;;;;;;;;;10138467;28;20074;-69
2021/05/31 21:01:59;;;;;;;9.63;5.28;;;;;;;;;;10158256;28;20470;-69
2021/05/31 21:06:55;;;;;;;9.63;5.45;;;;;;;;;;10148724;28;20049;-69
2021/05/31 21:11:53;;;;;;;9.30;5.57;;;;;;;;;;10163186;28;20134;-69
2021/05/31 21:16:57;;;;;;;11.70;5.95;;;;;;;;;;10159035;28;20066;-69
2021/05/31 21:21:59;;;;;;;9.48;5.65;;;;;;;;;;10140669;28;20592;-67
2021/05/31 21:26:55;;;;;;;9.60;5.38;;;;;;;;;;10153020;28;20481;-67
2021/05/31 21:31:52;;;;;;;9.68;5.80;;;;;;;;;;10152641;28;20523;-67
2021/05/31 21:36:48;;;;;;;11.35;5.43;;;;;;;;;;10155562;28;20042;-70
2021/05/31 21:41:44;;;;;;;10.18;6.75;;;;;;;;;;10151074;28;20042;-70
2021/05/31 21:46:41;;;;;;;11.77;6.35;;;;;;;;;;10155597;28;20531;-70
2021/05/31 21:51:37;;;;;;;10.75;7.05;;;;;;;;;;10164130;28;20048;-66
2021/05/31 21:56:34;;;;;;;10.52;6.90;;;;;;;;;;10163820;28;20050;-71
2021/05/31 22:01:30;;;;;;;9.85;6.20;;;;;;;;;;10159259;28;22267;-71
2021/05/31 22:06:27;;;;;;;10.70;6.45;;;;;;;;;;10161893;28;20493;-66
2021/05/31 22:11:25;;;;;;;10.73;6.22;;;;;;;;;;10146175;28;20043;-66
2021/05/31 22:21:21;;;;;;;12.23;7.07;;;;;;;;;;10149765;28;20043;-66
2021/05/31 22:26:19;;;;;;;8.60;6.65;;;;;;;;;;10147754;28;20659;-65
2021/05/31 22:31:21;;;;;;;9.60;6.78;;;;;;;;;;10151273;28;20038;-66
2021/05/31 22:36:18;;;;;;;10.15;7.15;;;;;;;;;;10152103;28;20534;-68
2021/05/31 22:41:26;;;;;;;9.15;5.82;;;;;;;;;;10139599;28;20047;-67
2021/05/31 22:57:20;;;;;;;7.95;6.03;;;;;;;;;;10154183;28;20153;-68
2021/05/31 23:02:28;;;;;;;9.55;6.25;;;;;;;;;;10155264;28;20046;-69
2021/05/31 23:12:27;;;;;;;9.77;5.90;;;;;;;;;;10162198;28;20038;-68
2021/05/31 23:17:25;;;;;;;11.20;5.78;;;;;;;;;;10168671;28;20050;-65
2021/05/31 23:22:22;;;;;;;10.77;5.90;;;;;;;;;;10153387;28;20070;-66
2021/05/31 23:27:19;;;;;;;9.00;5.57;;;;;;;;;;10162447;28;20062;-66
2021/05/31 23:32:15;;;;;;;11.43;5.53;;;;;;;;;;10145355;28;20078;-71
2021/05/31 23:37:13;;;;;;;8.40;5.78;;;;;;;;;;10169953;28;20073;-71
2021/05/31 23:42:09;;;;;;;11.65;6.85;;;;;;;;;;10150670;28;20125;-67
2021/05/31 23:47:05;;;;;;;9.93;6.00;;;;;;;;;;10139867;28;20137;-67
2021/05/31 23:52:02;;;;;;;10.35;6.25;;;;;;;;;;10151674;28;20463;-68
2021/05/31 23:56:58;;;;;;;13.20;6.80;;;;;;;;;;10137895;28;20050;-69
